Alpha, Illinois
Current Conditions -  °F | °C
As of 3:52 PM on Friday 28 Nov 2014 (Local Time) from KMLI Reporting Station
Clear Clear  
Wind Chill: 31°   Ceiling: Unl
Heat Index: 35°   Visibility: 8mi
Dew Point: 28°   Wind: 5mph
Humidity: 76%   Direction: 130°SE
Pressure: 29.91"   Gusts: NA
Location:  41.19°N, 90.38°W
Report Text: KMLI 282152Z 13004KT 8SM CLR 02/M02 A2991 RMK AO2 SLP136 T00171022
Loading
Personal Weather Stations






























Interactive Weather Map New forecast layout! Learn more

10-Day Weather Forecast

Advertisements
Track Severe Weather on mobile